createdAt,value
2018-07-21T00:00:03.829Z,99976.36
2018-07-21T00:02:34.679Z,99981.02
2018-07-21T00:05:05.682Z,99973.06
2018-07-21T00:07:36.660Z,99966.77
2018-07-21T00:10:07.683Z,99973.35
2018-07-21T00:12:39.056Z,99973.77
2018-07-21T00:15:09.754Z,99967.25
2018-07-21T00:17:40.694Z,99969.72
2018-07-21T00:20:11.604Z,99964.76
2018-07-21T00:22:44.815Z,99965.48
2018-07-21T00:25:14.689Z,99965.27
2018-07-21T00:27:44.789Z,99963.61
2018-07-21T00:30:15.714Z,99958.66
2018-07-21T00:32:47.169Z,99960.41
2018-07-21T00:35:17.873Z,99966.17
2018-07-21T00:37:48.870Z,99960.41
2018-07-21T00:40:19.692Z,99965.02
2018-07-21T00:42:50.632Z,99969.76
2018-07-21T00:45:21.641Z,99961.00
2018-07-21T00:47:52.638Z,99961.19
2018-07-21T00:50:23.611Z,99947.53
2018-07-21T00:52:53.670Z,99942.89
2018-07-21T00:55:24.621Z,99942.48
2018-07-21T00:57:55.673Z,99939.89
2018-07-21T01:00:26.684Z,99939.67
2018-07-21T01:02:57.710Z,99937.89
2018-07-21T01:05:28.802Z,99938.30
2018-07-21T01:08:00.628Z,99937.98
2018-07-21T01:10:30.597Z,99937.36
2018-07-21T01:13:01.682Z,99938.79
2018-07-21T01:15:32.652Z,99944.86
2018-07-21T01:18:03.621Z,99943.29
2018-07-21T01:20:34.729Z,99932.98
2018-07-21T01:23:06.136Z,99933.56
2018-07-21T01:25:38.421Z,99927.27
2018-07-21T01:28:09.569Z,99904.53
2018-07-21T01:30:39.577Z,99928.91
2018-07-21T01:33:09.542Z,99927.97
2018-07-21T01:35:40.561Z,99923.50
2018-07-21T01:38:11.613Z,99931.44
2018-07-21T01:40:42.873Z,99927.50
2018-07-21T01:43:14.142Z,99930.05
2018-07-21T01:45:44.752Z,99931.78
2018-07-21T01:48:15.781Z,99935.70
2018-07-21T01:50:46.795Z,99935.78
2018-07-21T01:53:17.704Z,99940.82
2018-07-21T01:55:48.697Z,99939.56
2018-07-21T01:58:19.813Z,99949.11
2018-07-21T02:00:51.140Z,99949.19
2018-07-21T02:03:21.942Z,99948.06
2018-07-21T02:05:52.784Z,99951.27
2018-07-21T02:08:23.741Z,99957.23
2018-07-21T02:10:54.653Z,99950.93
2018-07-21T02:13:25.597Z,99951.81
2018-07-21T02:15:57.279Z,99936.94
2018-07-21T02:18:27.910Z,99950.77
2018-07-21T02:20:58.692Z,99951.47
2018-07-21T02:23:29.699Z,99947.33
2018-07-21T02:26:00.607Z,99951.86
2018-07-21T02:28:31.724Z,99948.73
2018-07-21T02:31:02.676Z,99951.62
2018-07-21T02:33:33.638Z,99955.00
2018-07-21T02:36:04.658Z,99954.02
2018-07-21T02:38:36.086Z,99959.25
2018-07-21T02:41:06.828Z,99963.66
2018-07-21T02:43:37.848Z,99957.36
2018-07-21T02:46:09.150Z,99962.25
2018-07-21T02:48:39.909Z,99953.20
2018-07-21T02:51:10.675Z,99955.25
2018-07-21T02:53:41.687Z,99955.63
2018-07-21T02:56:12.679Z,99951.69
2018-07-21T02:58:45.101Z,99953.41
2018-07-21T03:01:15.084Z,99956.99
2018-07-21T03:03:45.797Z,99959.73
2018-07-21T03:06:16.671Z,99964.94
2018-07-21T03:08:53.369Z,99965.33
2018-07-21T03:11:23.307Z,99963.87
2018-07-21T03:13:53.266Z,99964.05
2018-07-21T03:16:23.716Z,99958.28
2018-07-21T03:18:53.675Z,99955.45
2018-07-21T03:21:23.633Z,99958.83
2018-07-21T03:23:55.320Z,99950.50
2018-07-21T03:26:25.252Z,99956.86
2018-07-21T03:28:56.212Z,99953.55
2018-07-21T03:31:27.969Z,99962.09
2018-07-21T03:33:57.925Z,99960.30
2018-07-21T03:36:28.740Z,99961.95
2018-07-21T03:38:59.690Z,99964.30
2018-07-21T03:41:30.678Z,99965.64
2018-07-21T03:44:01.651Z,99961.84
2018-07-21T03:46:32.479Z,99969.01
2018-07-21T03:49:02.485Z,99963.34
2018-07-21T03:51:33.441Z,99963.87
2018-07-21T03:54:04.588Z,99962.53
2018-07-21T03:56:35.630Z,99952.34
2018-07-21T03:59:08.321Z,99887.86
2018-07-21T04:01:38.199Z,99955.33
2018-07-21T04:04:09.946Z,99954.38
2018-07-21T04:06:39.851Z,99944.39
2018-07-21T04:09:12.677Z,99952.72
2018-07-21T04:11:42.582Z,99948.60
2018-07-21T04:14:12.548Z,99953.04
2018-07-21T04:16:43.495Z,99960.18
2018-07-21T04:19:14.684Z,99960.93
2018-07-21T04:21:46.527Z,99954.14
2018-07-21T04:24:16.593Z,99962.41
2018-07-21T04:26:47.678Z,99956.55
2018-07-21T04:29:18.637Z,99954.83
2018-07-21T04:31:50.083Z,99965.45
2018-07-21T04:34:20.754Z,99961.70
2018-07-21T04:36:52.036Z,99965.00
2018-07-21T04:39:22.751Z,99959.02
2018-07-21T04:41:54.687Z,99956.81
2018-07-21T04:44:24.676Z,99958.08
2018-07-21T04:46:55.728Z,99961.25
2018-07-21T04:49:27.564Z,99957.88
2018-07-21T04:51:57.521Z,99953.30
2018-07-21T04:54:29.397Z,99952.70
2018-07-21T04:56:59.363Z,99960.80
2018-07-21T04:59:30.790Z,99963.83
2018-07-21T05:02:01.698Z,99965.03
2018-07-21T05:04:32.658Z,99959.64
2018-07-21T05:07:03.575Z,99958.47
2018-07-21T05:09:34.478Z,99961.39
2018-07-21T05:12:05.951Z,99965.26
2018-07-21T05:14:36.652Z,99971.34
2018-07-21T05:17:07.518Z,99971.05
2018-07-21T05:19:38.549Z,99954.52
2018-07-21T05:22:09.443Z,99929.25
2018-07-21T05:24:40.767Z,99965.22
2018-07-21T05:27:11.713Z,99960.50
2018-07-21T05:29:43.135Z,99955.21
2018-07-21T05:32:16.063Z,99951.16
2018-07-21T05:34:46.625Z,99951.20
2018-07-21T05:37:16.593Z,99954.08
2018-07-21T05:39:46.487Z,99947.74
2018-07-21T05:42:17.764Z,99945.84
2018-07-21T05:44:49.139Z,99951.63
2018-07-21T05:47:19.741Z,99953.34
2018-07-21T05:49:50.662Z,99949.18
2018-07-21T05:52:21.581Z,99947.49
2018-07-21T05:54:52.879Z,99951.52
2018-07-21T05:57:23.586Z,99947.63
2018-07-21T05:59:54.489Z,99922.97
2018-07-21T06:02:25.378Z,99953.99
2018-07-21T06:04:56.699Z,99952.13
2018-07-21T06:07:27.468Z,99945.78
2018-07-21T06:09:58.796Z,99944.36
2018-07-21T06:12:29.648Z,99946.02
2018-07-21T06:15:00.537Z,99940.86
2018-07-21T06:17:31.390Z,99937.08
2018-07-21T06:20:02.991Z,99943.95
2018-07-21T06:22:33.713Z,99931.22
2018-07-21T06:25:04.876Z,99933.95
2018-07-21T06:27:35.634Z,99934.80
2018-07-21T06:30:07.306Z,99928.64
2018-07-21T06:32:37.833Z,99932.44
2018-07-21T06:35:09.061Z,99930.23
2018-07-21T06:37:39.690Z,99925.31
2018-07-21T06:40:10.635Z,99932.06
2018-07-21T06:42:41.624Z,99935.02
2018-07-21T06:45:12.522Z,99934.94
2018-07-21T06:47:43.475Z,99942.07
2018-07-21T06:50:14.557Z,99939.14
2018-07-21T06:52:45.494Z,99940.37
2018-07-21T06:55:16.423Z,99940.67
2018-07-21T06:57:47.318Z,99942.56
2018-07-21T07:00:18.741Z,99941.88
2018-07-21T07:02:50.687Z,99944.81
2018-07-21T07:05:20.920Z,99943.22
2018-07-21T07:07:51.782Z,99948.00
2018-07-21T07:10:22.961Z,99940.81
2018-07-21T07:12:53.886Z,99941.77
2018-07-21T07:15:24.632Z,99938.98
2018-07-21T07:17:55.808Z,99936.42
2018-07-21T07:20:26.721Z,99936.94
2018-07-21T07:23:02.933Z,99945.59
2018-07-21T07:25:33.723Z,99942.66
2018-07-21T07:28:03.597Z,99939.41
2018-07-21T07:30:33.490Z,99930.41
2018-07-21T07:33:03.367Z,99936.12
2018-07-21T07:35:33.321Z,99931.38
2018-07-21T07:38:03.787Z,99932.08
2018-07-21T07:40:34.602Z,99930.30
2018-07-21T07:43:05.479Z,99927.01
2018-07-21T07:45:36.402Z,99933.14
2018-07-21T07:48:08.025Z,99938.27
2018-07-21T07:50:38.635Z,99938.95
2018-07-21T07:53:09.576Z,99933.75
2018-07-21T07:55:40.442Z,99936.45
2018-07-21T07:58:11.322Z,99937.55
2018-07-21T08:00:43.078Z,99932.11
2018-07-21T08:03:13.693Z,99932.69
2018-07-21T08:05:44.520Z,99926.91
2018-07-21T08:08:15.349Z,99928.67
2018-07-21T08:10:46.789Z,99930.46
2018-07-21T08:13:17.540Z,99928.67
2018-07-21T08:15:48.398Z,99930.69
2018-07-21T08:18:19.728Z,99926.76
2018-07-21T08:20:50.660Z,99927.93
2018-07-21T08:23:21.463Z,99927.84
2018-07-21T08:25:52.365Z,99923.34
2018-07-21T08:28:23.311Z,99913.55
2018-07-21T08:30:54.697Z,99924.64
2018-07-21T08:33:25.445Z,99918.33
2018-07-21T08:35:56.467Z,99924.31
2018-07-21T08:38:31.372Z,99923.16
2018-07-21T08:41:01.289Z,99920.08
2018-07-21T08:43:31.105Z,99921.88
2018-07-21T08:46:00.964Z,99912.56
2018-07-21T08:48:31.730Z,99910.75
2018-07-21T08:51:02.587Z,99907.30
2018-07-21T08:53:33.835Z,99909.10
2018-07-21T08:56:04.664Z,99906.28
2018-07-21T08:58:35.633Z,99904.74
2018-07-21T09:01:07.577Z,99888.73
2018-07-21T09:03:37.441Z,99888.34
2018-07-21T09:06:08.367Z,99895.69
2018-07-21T09:08:39.626Z,99894.45
2018-07-21T09:11:10.466Z,99891.17
2018-07-21T09:13:41.355Z,99892.75
2018-07-21T09:16:12.561Z,99888.45
2018-07-21T09:18:44.195Z,99887.41
2018-07-21T09:21:14.724Z,99882.52
2018-07-21T09:23:45.515Z,99893.20
2018-07-21T09:26:16.416Z,99889.18
2018-07-21T09:28:47.723Z,99889.61
2018-07-21T09:31:17.932Z,99896.72
2018-07-21T09:33:48.569Z,99889.90
2018-07-21T09:36:19.386Z,99887.70
2018-07-21T09:47:44.014Z,99889.53
2018-07-21T09:50:14.270Z,99887.37
2018-07-21T09:52:44.068Z,99888.20
2018-07-21T09:55:13.877Z,99888.74
2018-07-21T09:57:43.935Z,99880.35
2018-07-21T10:00:17.751Z,99882.77
2018-07-21T10:02:47.851Z,99880.88
2018-07-21T10:05:17.674Z,99880.04
2018-07-21T10:07:47.730Z,99879.25
2018-07-21T10:10:17.674Z,99877.30
2018-07-21T10:12:47.760Z,99881.38
2018-07-21T10:15:17.665Z,99874.59
2018-07-21T10:17:47.600Z,99876.73
2018-07-21T10:20:17.743Z,99872.63
2018-07-21T10:22:47.801Z,99867.94
2018-07-21T10:25:22.623Z,99868.17
2018-07-21T10:27:57.387Z,99866.06
2018-07-21T10:30:27.207Z,99872.50
2018-07-21T10:32:57.069Z,99860.35
2018-07-21T10:35:26.961Z,99860.61
2018-07-21T10:37:56.953Z,99857.61
2018-07-21T10:40:26.872Z,99861.89
2018-07-21T10:42:56.852Z,99855.75
2018-07-21T10:45:27.109Z,99853.41
2018-07-21T10:47:57.263Z,99848.39
2018-07-21T10:50:27.156Z,99848.50
2018-07-21T10:52:56.996Z,99844.97
2018-07-21T10:55:26.822Z,99836.30
2018-07-21T10:57:56.656Z,99836.98
2018-07-21T11:00:26.607Z,99834.94
2018-07-21T11:02:56.632Z,99832.66
2018-07-21T11:05:26.643Z,99831.06
2018-07-21T11:07:56.811Z,99832.12
2018-07-21T11:10:26.728Z,99833.91
2018-07-21T11:13:03.472Z,99831.43
2018-07-21T11:15:33.657Z,99831.63
2018-07-21T11:18:03.784Z,99827.13
2018-07-21T11:20:33.668Z,99817.15
2018-07-21T11:23:03.765Z,99822.92
2018-07-21T11:25:33.589Z,99815.06
2018-07-21T11:28:03.744Z,99809.44
2018-07-21T11:30:33.626Z,99809.70
2018-07-21T11:33:03.456Z,99809.66
2018-07-21T11:35:33.619Z,99811.48
2018-07-21T11:38:03.725Z,99808.07
2018-07-21T11:40:33.581Z,99799.30
2018-07-21T11:43:03.704Z,99799.25
2018-07-21T11:45:33.726Z,99798.08
2018-07-21T11:48:03.973Z,99796.20
2018-07-21T11:50:33.845Z,99792.95
2018-07-21T11:53:03.691Z,99791.25
2018-07-21T11:55:33.678Z,99792.98
2018-07-21T11:58:03.580Z,99795.61
2018-07-21T12:00:33.604Z,99787.81
2018-07-21T12:03:03.751Z,99789.25
2018-07-21T12:05:33.697Z,99787.30
2018-07-21T12:08:04.063Z,99783.12
2018-07-21T12:10:33.836Z,99783.80
2018-07-21T12:13:03.737Z,99782.25
2018-07-21T12:15:33.757Z,99783.79
2018-07-21T12:18:03.707Z,99775.62
2018-07-21T12:20:33.658Z,99776.39
2018-07-21T12:23:03.629Z,99781.49
2018-07-21T12:25:33.644Z,99770.38
2018-07-21T12:28:03.637Z,99774.88
2018-07-21T12:30:33.769Z,99764.48
2018-07-21T12:33:03.591Z,99764.55
2018-07-21T12:35:33.699Z,99758.52
2018-07-21T12:38:03.679Z,99756.61
2018-07-21T12:40:33.598Z,99753.86
2018-07-21T12:43:03.664Z,99755.69
2018-07-21T12:45:41.393Z,99752.69
2018-07-21T12:48:11.220Z,99753.36
2018-07-21T12:50:41.059Z,99753.42
2018-07-21T12:53:10.926Z,99750.52
2018-07-21T12:55:40.740Z,99745.84
2018-07-21T12:58:10.698Z,99752.14
2018-07-21T13:00:40.650Z,99745.29
2018-07-21T13:03:11.063Z,99749.81
2018-07-21T13:05:41.064Z,99737.34
2018-07-21T13:08:10.978Z,99738.12
2018-07-21T13:10:40.790Z,99743.34
2018-07-21T13:13:10.630Z,99734.98
2018-07-21T13:15:40.594Z,99733.22
2018-07-21T13:18:11.426Z,99734.73
2018-07-21T13:20:41.318Z,99739.03
2018-07-21T13:23:11.252Z,99733.75
2018-07-21T13:25:41.157Z,99729.18
2018-07-21T13:28:11.139Z,99731.66
2018-07-21T13:30:41.466Z,99721.82
2018-07-21T13:33:11.754Z,99723.15
2018-07-21T13:35:41.654Z,99721.73
2018-07-21T13:38:11.617Z,99710.43
2018-07-21T13:40:42.125Z,99710.69
2018-07-21T13:43:11.949Z,99726.14
2018-07-21T13:45:42.024Z,99713.82
2018-07-21T13:48:12.382Z,99714.15
2018-07-21T13:50:42.557Z,99711.91
2018-07-21T13:53:12.704Z,99713.03
2018-07-21T13:55:42.594Z,99708.67
2018-07-21T13:58:13.041Z,99709.45
2018-07-21T14:00:43.044Z,99710.32
2018-07-21T14:03:13.540Z,99706.70
2018-07-21T14:05:43.344Z,99705.63
2018-07-21T14:08:13.177Z,99704.15
2018-07-21T14:10:43.299Z,99698.82
2018-07-21T14:13:13.295Z,99699.77
2018-07-21T14:15:43.283Z,99696.40
2018-07-21T14:18:13.175Z,99703.70
2018-07-21T14:20:43.073Z,99701.30
2018-07-21T14:23:13.486Z,99703.02
2018-07-21T14:25:43.310Z,99706.08
2018-07-21T14:28:14.093Z,99702.24
2018-07-21T14:30:43.975Z,99700.14
2018-07-21T14:33:14.691Z,99694.16
2018-07-21T14:35:45.560Z,99691.65
2018-07-21T14:38:16.719Z,99688.77
2018-07-21T14:40:47.569Z,99691.42
2018-07-21T14:43:18.733Z,99695.70
2018-07-21T14:45:49.542Z,99685.60
2018-07-21T14:48:20.408Z,99687.97
2018-07-21T14:50:51.391Z,99689.59
2018-07-21T14:53:22.371Z,99686.02
2018-07-21T14:55:53.364Z,99690.85
2018-07-21T14:58:24.763Z,99683.91
2018-07-21T15:00:55.571Z,99682.88
2018-07-21T15:03:26.577Z,99678.73
2018-07-21T15:05:57.360Z,99678.98
2018-07-21T15:08:28.714Z,99678.38
2018-07-21T15:10:59.673Z,99673.56
2018-07-21T15:13:30.569Z,99675.36
2018-07-21T15:16:01.442Z,99670.70
2018-07-21T15:18:32.886Z,99667.20
2018-07-21T15:21:06.689Z,99665.77
2018-07-21T15:23:36.661Z,99665.80
2018-07-21T15:26:06.666Z,99661.53
2018-07-21T15:28:36.513Z,99663.79
2018-07-21T15:31:07.383Z,99654.20
2018-07-21T15:33:38.312Z,99653.93
2018-07-21T15:36:09.988Z,99656.40
2018-07-21T15:38:40.705Z,99655.34
2018-07-21T15:41:11.497Z,99653.45
2018-07-21T15:43:42.433Z,99655.77
2018-07-21T15:46:13.372Z,99647.92
2018-07-21T15:48:44.794Z,99653.86
2018-07-21T15:51:15.634Z,99660.71
2018-07-21T15:53:46.463Z,99654.09
2018-07-21T15:56:17.349Z,99649.72
2018-07-21T15:58:48.776Z,99647.23
2018-07-21T16:01:19.671Z,99651.94
2018-07-21T16:03:51.512Z,99642.47
2018-07-21T16:06:21.344Z,99645.02
2018-07-21T16:08:52.808Z,99643.59
2018-07-21T16:11:23.590Z,99617.13
2018-07-21T16:13:54.447Z,99636.66
2018-07-21T16:16:25.518Z,99636.98
2018-07-21T16:18:56.792Z,99640.15
2018-07-21T16:21:28.075Z,99622.47
2018-07-21T16:23:58.759Z,99633.10
2018-07-21T16:26:29.524Z,99636.11
2018-07-21T16:29:00.411Z,99632.05
2018-07-21T16:31:31.906Z,99621.27
2018-07-21T16:34:02.620Z,99626.72
2018-07-21T16:36:33.445Z,99624.00
2018-07-21T16:39:05.385Z,99625.67
2018-07-21T16:41:35.321Z,99618.59
2018-07-21T16:44:07.388Z,99623.39
2018-07-21T16:46:37.386Z,99619.78
2018-07-21T16:49:08.381Z,99609.53
2018-07-21T16:51:39.385Z,99620.42
2018-07-21T16:54:10.391Z,99618.88
2018-07-21T16:56:42.469Z,99623.56
2018-07-21T16:59:12.371Z,99626.05
2018-07-21T17:01:44.347Z,99630.36
2018-07-21T17:04:14.249Z,99634.77
2018-07-21T17:06:45.595Z,99635.77
2018-07-21T17:09:16.402Z,99632.53
2018-07-21T17:11:47.295Z,99628.48
2018-07-21T17:14:18.628Z,99629.63
2018-07-21T17:16:49.445Z,99638.70
2018-07-21T17:19:20.380Z,99633.88
2018-07-21T17:21:51.688Z,99639.10
2018-07-21T17:24:22.566Z,99635.56
2018-07-21T17:26:53.712Z,99634.22
2018-07-21T17:29:24.547Z,99637.22
2018-07-21T17:31:55.163Z,99639.59
2018-07-21T17:34:25.724Z,99641.12
2018-07-21T17:36:56.942Z,99641.84
2018-07-21T17:39:27.626Z,99641.44
2018-07-21T17:41:58.452Z,99644.56
2018-07-21T17:44:29.373Z,99637.89
2018-07-21T17:47:00.747Z,99642.39
2018-07-21T17:49:31.598Z,99640.58
2018-07-21T17:52:02.397Z,99642.87
2018-07-21T17:54:33.377Z,99634.80
2018-07-21T17:57:04.842Z,99630.78
2018-07-21T17:59:35.565Z,99639.09
2018-07-21T18:02:06.526Z,99631.27
2018-07-21T18:04:37.553Z,99631.66
2018-07-21T18:07:08.388Z,99638.77
2018-07-21T18:09:39.693Z,99636.38
2018-07-21T18:12:10.473Z,99634.33
2018-07-21T18:14:41.414Z,99628.96
2018-07-21T18:17:12.389Z,99632.63
2018-07-21T18:19:43.442Z,99623.69
2018-07-21T18:22:14.338Z,99628.37
2018-07-21T18:24:45.670Z,99630.13
2018-07-21T18:27:17.612Z,99636.73
2018-07-21T18:29:47.408Z,99639.27
2018-07-21T18:32:18.669Z,99639.34
2018-07-21T18:34:48.543Z,99639.38
2018-07-21T18:37:19.355Z,99641.61
2018-07-21T18:39:50.853Z,99639.51
2018-07-21T18:42:21.552Z,99640.92
2018-07-21T18:44:52.491Z,99639.34
2018-07-21T18:47:23.949Z,99636.94
2018-07-21T18:49:54.656Z,99642.92
2018-07-21T18:52:25.397Z,99647.34
2018-07-21T18:54:56.416Z,99647.91
2018-07-21T18:57:28.282Z,99639.23
2018-07-21T18:59:58.702Z,99643.59
2018-07-21T19:02:28.509Z,99648.53
2018-07-21T19:04:59.427Z,99647.69
2018-07-21T19:07:30.331Z,99660.48
2018-07-21T19:10:01.690Z,99656.69
2018-07-21T19:12:37.569Z,99548.38
2018-07-21T19:15:07.518Z,99667.30
2018-07-21T19:17:37.329Z,99668.06
2018-07-21T19:20:12.259Z,99666.95
2018-07-21T19:22:42.354Z,99674.27
2018-07-21T19:25:17.232Z,99665.81
2018-07-21T19:27:47.080Z,99671.20
2018-07-21T19:30:17.055Z,99677.44
2018-07-21T19:32:52.283Z,99668.37
2018-07-21T19:35:22.122Z,99681.95
2018-07-21T19:37:52.493Z,99686.80
2018-07-21T19:40:22.359Z,99689.47
2018-07-21T19:42:52.254Z,99686.17
2018-07-21T19:45:22.183Z,99692.63
2018-07-21T19:47:52.152Z,99688.50
2018-07-21T19:50:22.107Z,99689.48
2018-07-21T19:52:52.024Z,99698.35
2018-07-21T19:55:22.109Z,99701.83
2018-07-21T19:57:51.891Z,99706.94
2018-07-21T20:00:28.418Z,99710.41
2018-07-21T20:02:58.214Z,99708.97
2018-07-21T20:05:28.125Z,99713.55
2018-07-21T20:07:58.077Z,99723.23
2018-07-21T20:10:28.055Z,99721.52
2018-07-21T20:12:57.937Z,99721.41
2018-07-21T20:15:27.751Z,99726.51
2018-07-21T20:17:57.645Z,99734.03
2018-07-21T20:20:28.439Z,99735.33
2018-07-21T20:22:59.421Z,99731.11
2018-07-21T20:25:30.690Z,99734.50
2018-07-21T20:28:01.562Z,99734.16
2018-07-21T20:30:32.436Z,99728.84
2018-07-21T20:33:03.493Z,99726.81
2018-07-21T20:35:34.391Z,99728.38
2018-07-21T20:38:05.843Z,99728.04
2018-07-21T20:40:36.710Z,99730.39
2018-07-21T20:43:07.728Z,99731.38
2018-07-21T20:45:38.642Z,99725.89
2018-07-21T20:48:09.617Z,99727.17
2018-07-21T20:50:40.474Z,99736.31
2018-07-21T20:53:11.824Z,99728.12
2018-07-21T20:55:42.687Z,99733.17
2018-07-21T20:58:13.566Z,99723.80
2018-07-21T21:00:44.444Z,99727.78
2018-07-21T21:03:15.529Z,99733.11
2018-07-21T21:05:46.567Z,99730.56
2018-07-21T21:08:17.783Z,99734.52
2018-07-21T21:10:47.761Z,99732.22
2018-07-21T21:13:18.740Z,99730.78
2018-07-21T21:15:49.739Z,99737.17
2018-07-21T21:18:20.828Z,99738.14
2018-07-21T21:20:51.782Z,99731.79
2018-07-21T21:23:22.696Z,99733.34
2018-07-21T21:25:54.262Z,99738.30
2018-07-21T21:28:24.722Z,99733.55
2018-07-21T21:30:55.823Z,99738.86
2018-07-21T21:33:26.581Z,99736.58
2018-07-21T21:35:58.659Z,99734.07
2018-07-21T21:38:28.787Z,99735.78
2018-07-21T21:40:59.646Z,99737.98
2018-07-21T21:43:30.514Z,99732.39
2018-07-21T21:46:01.447Z,99732.18
2018-07-21T21:48:32.924Z,99722.52
2018-07-21T21:51:03.649Z,99725.89
2018-07-21T21:53:34.557Z,99719.32
2018-07-21T21:56:06.070Z,99711.81
2018-07-21T21:58:36.637Z,99719.58
2018-07-21T22:01:10.407Z,99716.00
2018-07-21T22:03:40.212Z,99716.66
2018-07-21T22:06:10.142Z,99721.70
2018-07-21T22:08:40.854Z,99719.65
2018-07-21T22:11:11.773Z,99724.42
2018-07-21T22:13:42.663Z,99721.31
2018-07-21T22:16:13.498Z,99723.60
2018-07-21T22:18:44.523Z,99715.69
2018-07-21T22:21:15.813Z,99719.58
2018-07-21T22:23:46.678Z,99716.77
2018-07-21T22:26:17.569Z,99713.66
2018-07-21T22:28:48.898Z,99717.88
2018-07-21T22:31:20.234Z,99719.09
2018-07-21T22:33:50.765Z,99720.00
2018-07-21T22:36:21.681Z,99711.78
2018-07-21T22:38:52.523Z,99714.95
2018-07-21T22:41:23.424Z,99711.66
2018-07-21T22:43:54.326Z,99707.28
2018-07-21T22:46:25.770Z,99709.59
2018-07-21T22:48:56.649Z,99711.70
2018-07-21T22:51:27.536Z,99714.27
2018-07-21T22:53:58.379Z,99711.45
2018-07-21T22:56:29.753Z,99712.45
2018-07-21T22:59:00.610Z,99708.03
2018-07-21T23:01:31.497Z,99703.05
2018-07-21T23:04:02.754Z,99698.34
2018-07-21T23:06:33.656Z,99700.66
2018-07-21T23:09:04.863Z,99698.88
2018-07-21T23:11:35.610Z,99693.11
2018-07-21T23:14:06.590Z,99694.92
2018-07-21T23:16:37.535Z,99692.09
2018-07-21T23:19:08.837Z,99693.00
2018-07-21T23:21:39.683Z,99695.56
2018-07-21T23:24:10.554Z,99693.63
2018-07-21T23:26:41.765Z,99693.48
2018-07-21T23:29:12.586Z,99698.27
2018-07-21T23:31:44.115Z,99699.53
2018-07-21T23:34:15.058Z,99693.50
2018-07-21T23:36:45.678Z,99692.02
2018-07-21T23:39:16.543Z,99695.16
2018-07-21T23:41:47.463Z,99691.78
2018-07-21T23:44:19.223Z,99688.74
2018-07-21T23:46:49.665Z,99696.13
2018-07-21T23:49:20.539Z,99692.19
2018-07-21T23:51:51.422Z,99688.81
2018-07-21T23:54:22.430Z,99688.94
2018-07-21T23:56:53.380Z,99686.93
2018-07-21T23:59:24.868Z,99688.04
